Time;durP1;ratioP1;P1;durP2;ratioP2;P2;SDS_P1;SDS_P2;PMS_P1;PMS_P2;Temp;Humidity;BMP_temperature;BMP_pressure;BME280_temperature;BME280_humidity;BME280_pressure;Samples;Min_cycle;Max_cycle;Signal;HPM_P1;HPM_P2
2024/04/12 00:01:50;;;;;;;6.40;1.90;;;20.80;69.80;;;;;;5440146;26;20245;-76
2024/04/12 00:04:20;;;;;;;5.33;1.63;;;21.00;67.70;;;;;;5442319;26;20247;-77
2024/04/12 00:06:52;;;;;;;6.97;2.23;;;21.00;68.80;;;;;;5439306;26;20248;-75
2024/04/12 00:09:21;;;;;;;8.50;1.67;;;21.00;67.90;;;;;;5440679;26;20557;-74
2024/04/12 00:11:53;;;;;;;6.33;1.47;;;21.00;67.30;;;;;;5447940;26;20232;-75
2024/04/12 00:14:23;;;;;;;5.27;1.30;;;21.20;67.50;;;;;;5440770;26;20267;-76
2024/04/12 00:16:52;;;;;;;6.60;1.63;;;21.00;66.10;;;;;;5433971;26;20248;-77
2024/04/12 00:19:22;;;;;;;4.17;1.97;;;21.10;65.60;;;;;;5441981;26;20631;-74
2024/04/12 00:21:56;;;;;;;6.17;1.57;;;21.30;66.10;;;;;;5443346;26;20794;-76
2024/04/12 00:24:25;;;;;;;10.23;2.07;;;21.60;66.00;;;;;;5449436;26;20235;-76
2024/04/12 00:26:54;;;;;;;6.30;1.30;;;21.70;64.90;;;;;;5442160;26;20240;-75
2024/04/12 00:29:36;;;;;;;7.17;1.70;;;21.70;63.80;;;;;;5444683;26;20981;-75
2024/04/12 00:32:16;;;;;;;8.63;1.80;;;21.80;64.00;;;;;;5434546;26;20249;-76
2024/04/12 00:34:51;;;;;;;4.73;1.47;;;21.90;63.20;;;;;;5445337;26;20236;-74
2024/04/12 00:37:20;;;;;;;4.03;1.50;;;21.90;61.10;;;;;;5433453;26;20336;-76
2024/04/12 00:39:49;;;;;;;6.33;1.67;;;21.90;60.90;;;;;;5438590;26;20236;-76
2024/04/12 00:42:57;;;;;;;3.30;1.50;;;21.80;62.10;;;;;;5441703;26;20283;-75
2024/04/12 00:45:21;;;;;;;7.57;1.60;;;21.90;62.10;;;;;;5430378;26;20244;-75
2024/04/12 00:47:49;;;;;;;5.03;1.37;;;21.90;61.90;;;;;;5441527;26;20279;-76
2024/04/12 00:50:16;;;;;;;5.20;1.43;;;22.00;61.50;;;;;;5443471;26;20266;-75
2024/04/12 00:52:44;;;;;;;7.43;1.70;;;22.10;61.80;;;;;;5441202;26;20236;-77
2024/04/12 00:55:13;;;;;;;3.60;1.20;;;22.40;62.40;;;;;;5443907;26;20245;-76
2024/04/12 00:57:41;;;;;;;7.83;1.53;;;22.60;61.10;;;;;;5447718;26;20303;-77
2024/04/12 01:00:19;;;;;;;9.03;1.40;;;22.80;60.20;;;;;;5449420;26;20363;-76
2024/04/12 01:02:48;;;;;;;5.57;1.33;;;22.60;60.20;;;;;;5441039;26;20680;-74
2024/04/12 01:05:19;;;;;;;9.50;1.70;;;22.70;58.20;;;;;;5443978;26;20307;-74
2024/04/12 01:07:55;;;;;;;3.80;1.37;;;22.50;60.30;;;;;;5440428;26;20311;-73
2024/04/12 01:10:30;;;;;;;6.50;1.20;;;22.70;60.10;;;;;;5449216;26;20283;-75
2024/04/12 01:13:02;;;;;;;4.20;1.50;;;22.70;60.30;;;;;;5432614;26;20287;-75
2024/04/12 01:15:37;;;;;;;7.60;1.37;;;22.70;59.20;;;;;;5449403;26;20244;-74
2024/04/12 01:18:05;;;;;;;6.33;1.40;;;22.80;59.30;;;;;;5432747;26;20287;-75
2024/04/12 01:20:34;;;;;;;6.60;1.40;;;22.80;58.70;;;;;;5443500;26;20243;-76
2024/04/12 01:23:05;;;;;;;3.90;1.10;;;23.10;57.30;;;;;;5455114;26;20228;-74
2024/04/12 01:25:34;;;;;;;7.43;1.37;;;23.30;57.80;;;;;;5445190;26;22003;-76
2024/04/12 01:28:04;;;;;;;5.93;1.30;;;23.50;56.70;;;;;;5444207;26;20236;-72
2024/04/12 01:30:34;;;;;;;4.97;1.30;;;23.30;56.70;;;;;;5436912;26;20243;-73
2024/04/12 01:33:06;;;;;;;7.10;1.20;;;23.40;54.10;;;;;;5435177;26;20241;-74
2024/04/12 01:35:36;;;;;;;4.63;1.30;;;23.50;54.90;;;;;;5446954;26;20518;-74
2024/04/12 01:38:16;;;;;;;5.07;1.53;;;23.50;54.70;;;;;;5444924;26;20718;-74
2024/04/12 01:40:56;;;;;;;3.53;1.20;;;23.30;54.30;;;;;;5447280;26;20283;-74
2024/04/12 01:43:32;;;;;;;6.83;1.37;;;23.30;55.40;;;;;;5449726;26;20357;-77
2024/04/12 01:46:00;;;;;;;3.67;1.30;;;23.50;56.40;;;;;;5448899;26;20244;-74
2024/04/12 01:48:28;;;;;;;8.00;1.60;;;23.60;55.40;;;;;;5445227;26;20563;-76
2024/04/12 01:50:56;;;;;;;3.97;1.30;;;23.80;52.60;;;;;;5441019;26;20240;-75
2024/04/12 01:53:23;;;;;;;3.63;1.07;;;23.70;52.90;;;;;;5447105;26;20239;-72
2024/04/12 01:55:50;;;;;;;2.20;0.90;;;23.80;49.30;;;;;;5449619;26;20286;-75
2024/04/12 01:58:21;;;;;;;1.87;0.90;;;24.10;47.20;;;;;;5446151;26;20232;-73
2024/04/12 02:00:49;;;;;;;3.00;0.90;;;23.80;44.40;;;;;;5437628;26;20364;-73
2024/04/12 02:03:17;;;;;;;2.17;0.73;;;23.80;43.80;;;;;;5445309;26;20667;-74
2024/04/12 02:05:48;;;;;;;2.17;0.73;;;23.90;42.90;;;;;;5438692;26;20315;-75
2024/04/12 02:08:18;;;;;;;1.57;0.80;;;24.20;42.70;;;;;;5445821;26;20300;-75
2024/04/12 02:10:48;;;;;;;1.27;0.70;;;24.50;42.60;;;;;;5439256;26;20738;-74
2024/04/12 02:13:20;;;;;;;2.47;1.00;;;24.80;43.50;;;;;;5453660;26;20772;-73
2024/04/12 02:15:51;;;;;;;1.17;0.70;;;24.80;42.60;;;;;;5446387;26;20228;-76
2024/04/12 02:18:23;;;;;;;2.43;1.00;;;24.80;43.40;;;;;;5437107;26;20348;-75
2024/04/12 02:20:52;;;;;;;2.63;1.00;;;25.30;41.90;;;;;;5444034;25;20294;-74
2024/04/12 02:23:20;;;;;;;4.20;1.23;;;25.30;43.20;;;;;;5437733;26;20239;-74
2024/04/12 02:25:49;;;;;;;4.43;1.07;;;24.90;44.90;;;;;;5447030;26;20240;-76
2024/04/12 02:28:17;;;;;;;3.07;1.13;;;24.90;46.50;;;;;;5452791;26;20248;-74
2024/04/12 02:30:53;;;;;;;2.23;1.17;;;25.30;46.40;;;;;;5448252;26;20339;-75
2024/04/12 02:33:22;;;;;;;3.03;1.43;;;25.10;45.70;;;;;;5448776;26;20235;-75
2024/04/12 02:36:00;;;;;;;5.03;1.00;;;25.60;44.30;;;;;;5443236;26;20235;-74
2024/04/12 02:38:28;;;;;;;2.63;1.23;;;25.20;45.70;;;;;;5431934;26;20274;-74
2024/04/12 02:40:59;;;;;;;3.30;1.10;;;25.50;46.30;;;;;;5444939;26;20240;-74
2024/04/12 02:43:29;;;;;;;3.90;1.10;;;26.20;45.10;;;;;;5434068;26;20543;-74
2024/04/12 02:46:01;;;;;;;3.03;1.43;;;25.70;45.20;;;;;;5418283;26;20244;-74
2024/04/12 02:48:28;;;;;;;3.83;1.30;;;26.00;45.10;;;;;;5432031;26;20229;-76
2024/04/12 02:51:02;;;;;;;3.60;1.27;;;26.60;44.10;;;;;;5439838;26;20301;-75
2024/04/12 02:53:31;;;;;;;5.77;0.90;;;26.70;44.20;;;;;;5452129;26;20243;-75
2024/04/12 02:56:02;;;;;;;3.37;1.43;;;26.80;43.50;;;;;;5449921;26;20317;-75
2024/04/12 02:58:41;;;;;;;3.97;1.00;;;27.20;42.60;;;;;;5435914;26;20232;-73
2024/04/12 03:01:13;;;;;;;5.00;1.33;;;27.00;42.60;;;;;;5443655;26;20360;-76
2024/04/12 03:03:54;;;;;;;6.40;1.23;;;26.40;43.90;;;;;;5446405;26;20259;-75
2024/04/12 03:06:23;;;;;;;4.77;1.17;;;26.80;43.90;;;;;;5445471;26;20299;-76
2024/04/12 03:08:53;;;;;;;3.37;1.33;;;27.20;43.20;;;;;;5439001;26;20290;-75
2024/04/12 03:11:29;;;;;;;2.07;1.07;;;26.80;43.30;;;;;;5450839;26;20232;-76
2024/04/12 03:14:03;;;;;;;3.80;1.07;;;27.10;43.00;;;;;;5451485;26;20232;-75
2024/04/12 03:16:32;;;;;;;7.47;1.30;;;27.80;42.00;;;;;;5435129;26;20313;-77
2024/04/12 03:19:02;;;;;;;1.87;0.93;;;28.00;40.50;;;;;;5443373;26;20282;-77
2024/04/12 03:21:30;;;;;;;5.37;1.47;;;28.00;42.00;;;;;;5436074;26;20233;-76
2024/04/12 03:23:58;;;;;;;4.97;1.70;;;28.50;42.00;;;;;;5448724;26;20291;-77
2024/04/12 03:26:26;;;;;;;8.83;2.03;;;28.70;44.80;;;;;;5447086;26;20279;-75
2024/04/12 03:28:59;;;;;;;6.43;2.33;;;28.40;46.40;;;;;;5445943;26;20240;-76
2024/04/12 03:31:26;;;;;;;8.93;2.60;;;28.20;47.60;;;;;;5447225;26;20764;-75
2024/04/12 03:34:00;;;;;;;8.13;2.45;;;27.60;49.90;;;;;;5431500;26;20244;-75
2024/04/12 03:42:08;;;;;;;4.93;2.00;;;27.30;50.10;;;;;;5440698;26;20224;-76
2024/04/12 03:44:37;;;;;;;6.90;2.03;;;27.50;49.70;;;;;;5445004;26;20266;-75
2024/04/12 03:47:08;;;;;;;8.47;2.17;;;27.60;49.40;;;;;;5438779;26;20356;-75
2024/04/12 03:49:39;;;;;;;14.17;2.70;;;26.50;52.10;;;;;;5444660;26;20236;-74
2024/04/12 03:52:14;;;;;;;12.73;2.83;;;27.00;50.50;;;;;;5444764;26;20239;-76
2024/04/12 03:54:47;;;;;;;4.13;1.80;;;26.20;51.70;;;;;;5437684;26;20348;-74
2024/04/12 03:57:15;;;;;;;10.63;2.00;;;25.70;53.70;;;;;;5437316;26;20702;-75
2024/04/12 03:59:43;;;;;;;9.37;2.20;;;26.30;51.80;;;;;;5441966;26;20244;-74
2024/04/12 04:02:11;;;;;;;9.07;2.20;;;26.60;51.40;;;;;;5441583;26;20231;-75
2024/04/12 04:04:48;;;;;;;4.70;1.70;;;26.40;50.40;;;;;;5439689;26;20357;-75
2024/04/12 04:07:16;;;;;;;7.83;2.37;;;26.30;50.20;;;;;;5441368;26;20353;-73
2024/04/12 04:09:44;;;;;;;9.23;1.87;;;26.20;51.60;;;;;;5438580;26;20307;-74
2024/04/12 04:12:15;;;;;;;6.77;1.90;;;25.80;53.00;;;;;;5444585;26;20232;-74
2024/04/12 04:14:55;;;;;;;7.10;2.10;;;25.80;52.30;;;;;;5439286;26;20240;-73
2024/04/12 04:17:29;;;;;;;4.77;1.77;;;26.20;51.20;;;;;;5445033;26;20271;-75
2024/04/12 04:19:57;;;;;;;5.07;1.83;;;26.40;51.00;;;;;;5448327;26;20623;-74
2024/04/12 04:24:55;;;;;;;6.73;2.03;;;26.70;49.10;;;;;;5446877;26;20589;-76
2024/04/12 04:27:24;;;;;;;8.07;1.77;;;26.90;48.30;;;;;;5442606;26;20278;-75
2024/04/12 04:29:55;;;;;;;6.17;1.97;;;26.70;48.60;;;;;;5441685;26;20288;-75
2024/04/12 04:32:23;;;;;;;5.07;1.40;;;26.30;49.40;;;;;;5431149;26;20693;-75
2024/04/12 04:34:54;;;;;;;4.53;1.57;;;27.30;46.80;;;;;;5438948;26;20244;-75
2024/04/12 04:37:22;;;;;;;6.37;1.77;;;27.80;46.10;;;;;;5440117;26;20241;-75
2024/04/12 04:39:49;;;;;;;5.50;2.07;;;27.80;45.30;;;;;;5438517;26;20244;-74
2024/04/12 04:42:17;;;;;;;4.90;1.30;;;27.60;45.10;;;;;;5449301;26;20344;-75
2024/04/12 04:44:45;;;;;;;5.63;1.50;;;27.20;45.70;;;;;;5443141;26;20371;-75
2024/04/12 04:47:14;;;;;;;6.00;1.40;;;27.00;46.80;;;;;;5454027;26;20236;-72
2024/04/12 04:49:42;;;;;;;4.87;1.50;;;27.20;45.80;;;;;;5433121;26;20248;-73
2024/04/12 04:52:10;;;;;;;4.00;1.80;;;26.70;46.00;;;;;;5447139;26;20270;-73
2024/04/12 04:54:39;;;;;;;4.80;1.60;;;26.40;46.80;;;;;;5444705;26;20711;-75
2024/04/12 04:57:07;;;;;;;5.80;1.17;;;27.10;46.50;;;;;;5443303;26;20263;-75
2024/04/12 04:59:35;;;;;;;8.43;1.60;;;27.30;45.40;;;;;;5432088;26;20299;-75
2024/04/12 05:02:03;;;;;;;7.17;2.03;;;27.80;45.60;;;;;;5439859;26;20237;-74
2024/04/12 05:04:32;;;;;;;3.70;1.33;;;27.50;46.30;;;;;;5440735;26;20245;-75
2024/04/12 05:07:00;;;;;;;12.37;1.87;;;27.60;46.30;;;;;;5445652;26;20274;-75
2024/04/12 05:09:27;;;;;;;6.00;1.90;;;28.40;44.90;;;;;;5445717;26;20236;-75
2024/04/12 05:11:55;;;;;;;7.10;1.47;;;28.60;44.50;;;;;;5474908;26;20305;-76
2024/04/12 05:17:06;;;;;;;4.57;1.53;;;27.70;44.20;;;;;;5440992;26;20340;-75
2024/04/12 05:19:43;;;;;;;7.13;1.43;;;27.30;44.90;;;;;;5436083;26;20241;-75
2024/04/12 05:22:20;;;;;;;7.23;1.47;;;26.80;46.50;;;;;;5435191;26;20239;-74
2024/04/12 05:24:52;;;;;;;4.77;1.70;;;26.80;47.30;;;;;;5438548;26;20279;-74
2024/04/12 05:27:19;;;;;;;5.70;1.80;;;27.30;46.90;;;;;;5446508;26;20665;-75
2024/04/12 05:29:46;;;;;;;7.93;1.63;;;27.20;46.60;;;;;;5452314;26;20243;-75
2024/04/12 05:32:14;;;;;;;5.80;1.80;;;27.50;47.30;;;;;;5446765;26;20236;-75
2024/04/12 05:34:41;;;;;;;7.18;1.40;;;27.80;46.30;;;;;;5441486;26;20229;-75
2024/04/12 05:37:09;;;;;;;6.27;1.73;;;28.70;43.80;;;;;;5440803;26;20302;-75
2024/04/12 05:39:41;;;;;;;2.83;1.30;;;28.20;44.20;;;;;;5445263;26;20407;-75
2024/04/12 05:42:09;;;;;;;5.37;1.40;;;27.80;45.40;;;;;;5449460;26;22440;-75
2024/04/12 05:44:38;;;;;;;6.80;1.37;;;28.30;44.50;;;;;;5446792;26;20727;-75
2024/04/12 05:47:06;;;;;;;7.27;1.77;;;27.70;45.70;;;;;;5449003;26;20292;-75
2024/04/12 05:49:34;;;;;;;4.03;1.33;;;27.40;46.60;;;;;;5437548;26;20233;-74
2024/04/12 05:52:03;;;;;;;4.60;1.60;;;27.20;47.00;;;;;;5436430;26;20237;-76
2024/04/12 05:54:39;;;;;;;6.57;1.40;;;27.30;47.00;;;;;;5449926;26;20292;-75
2024/04/12 05:57:07;;;;;;;5.93;1.50;;;27.60;47.10;;;;;;5444457;26;20378;-75
2024/04/12 05:59:37;;;;;;;5.73;1.40;;;28.00;46.90;;;;;;5437632;26;20522;-75
2024/04/12 06:02:05;;;;;;;5.00;1.40;;;28.40;44.50;;;;;;5449159;26;20277;-75
2024/04/12 06:04:36;;;;;;;5.57;1.43;;;27.40;46.70;;;;;;5438590;26;20236;-75
2024/04/12 06:07:11;;;;;;;5.97;1.57;;;27.50;47.20;;;;;;5443401;26;20233;-76
2024/04/12 06:09:39;;;;;;;4.83;1.40;;;27.70;46.80;;;;;;5443010;26;20267;-76
2024/04/12 06:12:07;;;;;;;5.17;1.47;;;27.60;46.50;;;;;;5444195;26;20241;-73
2024/04/12 06:14:38;;;;;;;6.13;1.63;;;26.70;48.40;;;;;;5441633;26;20233;-74
2024/04/12 06:17:08;;;;;;;4.07;1.33;;;25.90;50.40;;;;;;5444871;26;20336;-74
2024/04/12 06:19:39;;;;;;;4.97;1.50;;;26.20;49.60;;;;;;5442279;26;20236;-76
2024/04/12 06:22:15;;;;;;;3.63;1.53;;;26.60;49.70;;;;;;5445848;26;20236;-74
2024/04/12 06:24:49;;;;;;;3.20;1.17;;;26.90;49.10;;;;;;5448882;26;20231;-75
2024/04/12 06:27:29;;;;;;;5.17;1.93;;;27.30;48.00;;;;;;5446587;26;20303;-75
2024/04/12 06:30:00;;;;;;;6.93;1.20;;;27.60;47.30;;;;;;5444455;26;20256;-75
2024/04/12 06:32:30;;;;;;;4.93;1.40;;;27.10;48.70;;;;;;5433366;26;20310;-74
2024/04/12 06:35:03;;;;;;;7.17;1.40;;;27.20;47.90;;;;;;5442236;26;20755;-75
2024/04/12 06:37:32;;;;;;;5.10;1.30;;;26.70;49.70;;;;;;5428461;26;20610;-73
2024/04/12 06:39:59;;;;;;;4.10;1.40;;;26.80;49.60;;;;;;5444070;26;20559;-73
2024/04/12 06:42:27;;;;;;;6.30;1.60;;;26.50;50.80;;;;;;5443864;26;20244;-74
2024/04/12 06:44:54;;;;;;;7.20;1.50;;;26.10;51.20;;;;;;5442135;26;20342;-74
2024/04/12 06:47:25;;;;;;;10.23;1.67;;;26.00;50.90;;;;;;5432940;26;20233;-74
2024/04/12 06:49:54;;;;;;;6.90;1.50;;;25.30;52.80;;;;;;5434487;26;20233;-74
2024/04/12 06:52:22;;;;;;;4.93;1.33;;;24.10;55.70;;;;;;5447583;26;20363;-74
2024/04/12 06:54:50;;;;;;;5.23;1.40;;;23.50;57.20;;;;;;5449078;26;20567;-73
2024/04/12 06:57:25;;;;;;;4.57;1.10;;;23.30;57.40;;;;;;5446463;26;20303;-74
2024/04/12 07:00:00;;;;;;;4.03;1.20;;;22.90;58.90;;;;;;5447917;26;20266;-73
2024/04/12 07:02:29;;;;;;;5.23;1.20;;;22.80;59.70;;;;;;5440353;26;20283;-73
2024/04/12 07:04:58;;;;;;;4.87;1.30;;;22.80;59.80;;;;;;5450394;26;20286;-75
2024/04/12 07:07:29;;;;;;;4.27;1.60;;;22.60;60.80;;;;;;5432069;26;20236;-76
2024/04/12 07:10:01;;;;;;;5.93;1.20;;;22.50;60.50;;;;;;5433859;26;20279;-76
2024/04/12 07:12:37;;;;;;;6.07;1.30;;;22.30;61.40;;;;;;5437498;26;20719;-77
2024/04/12 07:15:09;;;;;;;7.07;1.20;;;22.20;61.50;;;;;;5442872;26;20232;-77
2024/04/12 07:17:40;;;;;;;2.67;1.10;;;22.20;61.90;;;;;;5439985;26;20235;-76
2024/04/12 07:20:14;;;;;;;7.57;1.60;;;21.90;62.40;;;;;;5441977;26;21262;-76
2024/04/12 07:22:41;;;;;;;5.80;1.50;;;21.90;62.90;;;;;;5446890;26;20680;-75
2024/04/12 07:25:10;;;;;;;7.30;1.47;;;21.80;62.50;;;;;;5449715;26;20247;-76
2024/04/12 07:27:41;;;;;;;2.03;1.20;;;21.80;62.40;;;;;;5446527;26;20244;-76
2024/04/12 07:30:10;;;;;;;3.73;1.23;;;21.80;62.40;;;;;;5450521;26;20236;-77
2024/04/12 07:32:42;;;;;;;7.30;1.40;;;21.80;62.60;;;;;;5452933;26;20783;-75
2024/04/12 07:35:48;;;;;;;7.33;1.57;;;21.70;62.80;;;;;;5449075;26;20294;-76
2024/04/12 07:38:08;;;;;;;6.40;1.40;;;21.50;62.30;;;;;;5446947;26;20274;-76
2024/04/12 07:40:39;;;;;;;9.47;1.57;;;21.50;62.50;;;;;;5451066;26;20331;-76
2024/04/12 07:43:11;;;;;;;7.90;1.70;;;21.40;62.60;;;;;;5450591;26;20763;-76
2024/04/12 07:45:40;;;;;;;3.07;1.30;;;21.30;62.80;;;;;;5443897;26;20232;-75
2024/04/12 07:50:53;;;;;;;9.57;5.57;;;21.30;63.50;;;;;;5453748;26;20231;-76
2024/04/12 07:53:24;;;;;;;9.47;3.50;;;21.30;64.20;;;;;;5444432;26;20267;-76
2024/04/12 07:56:00;;;;;;;10.73;4.33;;;21.30;64.70;;;;;;5453528;26;20563;-76
2024/04/12 07:58:34;;;;;;;10.37;2.30;;;21.30;65.10;;;;;;5453925;26;20710;-75
2024/04/12 08:01:18;;;;;;;5.57;1.60;;;21.20;65.70;;;;;;5453965;26;20312;-75
2024/04/12 08:04:05;;;;;;;8.50;1.60;;;21.20;66.30;;;;;;5450851;26;20315;-76
2024/04/12 08:06:55;;;;;;;9.17;1.97;;;21.20;66.80;;;;;;5452410;26;20298;-74
2024/04/12 08:09:35;;;;;;;12.93;2.33;;;21.10;67.40;;;;;;5447224;26;20569;-75
2024/04/12 08:12:13;;;;;;;13.23;2.37;;;21.00;68.00;;;;;;5452297;26;20296;-77
2024/04/12 08:14:55;;;;;;;6.17;1.90;;;21.00;68.30;;;;;;5463573;26;20779;-76
2024/04/12 08:17:39;;;;;;;6.97;1.83;;;21.00;68.80;;;;;;5445847;26;20238;-77
2024/04/12 08:20:13;;;;;;;8.93;2.13;;;20.90;69.40;;;;;;5442175;26;20232;-76
2024/04/12 08:22:44;;;;;;;9.33;1.90;;;20.90;69.70;;;;;;5442749;26;20276;-77
2024/04/12 08:25:17;;;;;;;6.13;1.57;;;20.90;70.10;;;;;;5454990;26;20228;-76
2024/04/12 08:27:45;;;;;;;10.50;2.10;;;20.80;70.20;;;;;;5455008;26;20552;-77
2024/04/12 08:30:19;;;;;;;5.43;1.87;;;20.80;70.50;;;;;;5451754;26;20247;-76
2024/04/12 08:32:49;;;;;;;9.10;2.30;;;20.80;70.70;;;;;;5448363;26;20235;-77
2024/04/12 08:35:24;;;;;;;8.17;2.00;;;20.80;70.90;;;;;;5449501;26;20348;-77
2024/04/12 08:37:51;;;;;;;9.87;2.10;;;20.80;71.20;;;;;;5452354;26;20224;-78
2024/04/12 08:40:21;;;;;;;6.63;2.30;;;20.70;71.60;;;;;;5454582;26;20730;-74
2024/04/12 08:42:49;;;;;;;6.50;2.00;;;20.70;71.60;;;;;;5450161;26;20318;-77
2024/04/12 08:45:21;;;;;;;9.30;2.10;;;20.70;71.90;;;;;;5451292;26;20298;-77
2024/04/12 08:48:01;;;;;;;12.90;2.23;;;20.70;72.00;;;;;;5453558;26;20711;-76
2024/04/12 08:50:32;;;;;;;8.90;2.10;;;20.70;72.20;;;;;;5453253;26;20241;-77
2024/04/12 08:53:04;;;;;;;10.20;2.97;;;20.60;72.50;;;;;;5454048;26;20274;-78
2024/04/12 08:55:33;;;;;;;12.80;2.33;;;20.60;72.60;;;;;;5448920;26;20252;-77
2024/04/12 08:58:06;;;;;;;7.63;2.03;;;20.60;72.80;;;;;;5452992;26;20232;-77
2024/04/12 09:00:34;;;;;;;10.33;2.40;;;20.60;72.80;;;;;;5447007;26;20320;-78
2024/04/12 09:03:03;;;;;;;9.73;2.30;;;20.50;73.00;;;;;;5450360;26;20228;-77
2024/04/12 09:05:56;;;;;;;11.80;2.63;;;20.50;72.90;;;;;;5455244;26;20263;-77
2024/04/12 09:08:28;;;;;;;12.20;2.30;;;20.40;73.30;;;;;;5455920;26;20229;-76
2024/04/12 09:11:00;;;;;;;15.23;3.60;;;20.40;73.30;;;;;;5451126;26;20287;-75
2024/04/12 09:13:30;;;;;;;8.30;3.87;;;20.40;73.30;;;;;;5446121;26;20267;-76
2024/04/12 09:16:03;;;;;;;11.10;6.30;;;20.30;73.50;;;;;;5450934;26;20233;-78
2024/04/12 09:18:44;;;;;;;11.87;4.50;;;20.30;73.40;;;;;;5454560;26;20240;-78
2024/04/12 09:21:24;;;;;;;8.07;2.90;;;20.30;73.60;;;;;;5447216;26;20248;-78
2024/04/12 09:23:56;;;;;;;17.17;3.07;;;20.30;73.60;;;;;;5449337;26;20290;-76
2024/04/12 09:26:24;;;;;;;12.60;3.00;;;20.30;73.60;;;;;;5450316;26;20309;-78
2024/04/12 09:29:01;;;;;;;11.30;2.60;;;20.30;73.60;;;;;;5444697;26;20292;-77
2024/04/12 09:34:22;;;;;;;12.67;3.10;;;20.30;73.80;;;;;;5432649;26;20277;-75
2024/04/12 09:37:01;;;;;;;18.20;3.63;;;20.30;73.80;;;;;;5450375;26;20232;-75
2024/04/12 09:40:34;;;;;;;10.40;3.23;;;20.30;73.90;;;;;;5451629;26;20266;-76
2024/04/12 09:45:20;;;;;;;17.50;2.97;;;20.30;74.20;;;;;;5457557;26;20322;-77
2024/04/12 10:38:44;;;;;;;9.47;2.80;;;20.10;75.20;;;;;;5441970;26;20278;-77
2024/04/12 10:41:11;;;;;;;10.70;2.73;;;20.10;75.10;;;;;;5453960;26;20315;-78
2024/04/12 10:43:41;;;;;;;9.20;2.90;;;20.10;74.90;;;;;;5452405;26;20595;-77
2024/04/12 10:46:12;;;;;;;12.13;2.80;;;20.10;75.10;;;;;;5445608;26;20333;-75
2024/04/12 10:48:43;;;;;;;9.53;3.10;;;20.10;75.20;;;;;;5451296;26;20765;-78
2024/04/12 10:51:14;;;;;;;14.17;3.30;;;20.00;75.30;;;;;;5443862;26;20252;-78
2024/04/12 10:53:43;;;;;;;8.43;3.50;;;20.00;75.40;;;;;;5446762;26;20363;-77
2024/04/12 10:56:18;;;;;;;11.30;2.87;;;19.90;75.60;;;;;;5451327;26;20274;-77
2024/04/12 10:58:52;;;;;;;9.70;3.30;;;19.90;75.60;;;;;;5452321;26;20274;-77
2024/04/12 11:01:23;;;;;;;9.90;3.33;;;19.80;75.60;;;;;;5449621;26;20236;-76
2024/04/12 11:03:57;;;;;;;9.80;2.80;;;19.70;75.80;;;;;;5441171;26;20781;-78
2024/04/12 11:06:34;;;;;;;13.03;3.60;;;19.60;76.00;;;;;;5437342;26;20406;-78
2024/04/12 11:09:05;;;;;;;8.27;2.47;;;19.50;76.40;;;;;;5449369;26;20219;-77
2024/04/12 11:11:34;;;;;;;9.60;2.53;;;19.50;76.60;;;;;;5444762;26;20283;-76
2024/04/12 11:14:05;;;;;;;9.20;2.70;;;19.40;76.80;;;;;;5447245;26;20240;-78
2024/04/12 11:33:05;;;;;;;11.47;2.53;;;19.30;77.90;;;;;;5454637;26;20328;-76
2024/04/12 11:35:34;;;;;;;7.73;2.63;;;19.30;78.00;;;;;;5453902;26;20334;-77
2024/04/12 11:38:04;;;;;;;9.37;3.00;;;19.30;78.00;;;;;;5444492;26;20537;-76
2024/04/12 11:40:37;;;;;;;11.50;2.80;;;19.30;78.10;;;;;;5453772;26;20396;-75
2024/04/12 11:43:06;;;;;;;7.23;2.60;;;19.20;78.20;;;;;;5462764;26;20317;-76
2024/04/12 11:45:41;;;;;;;9.73;3.40;;;19.20;78.60;;;;;;5457009;26;20236;-77
2024/04/12 11:48:14;;;;;;;7.53;3.13;;;19.10;78.60;;;;;;5450906;26;20263;-77
2024/04/12 11:50:43;;;;;;;9.57;3.20;;;19.00;78.90;;;;;;5454263;26;20229;-76
2024/04/12 11:53:11;;;;;;;7.57;2.93;;;19.00;79.10;;;;;;5455123;26;20288;-75
2024/04/12 11:55:42;;;;;;;9.23;3.33;;;19.00;79.20;;;;;;5448567;26;20317;-77
2024/04/12 11:58:09;;;;;;;11.27;3.20;;;18.90;79.30;;;;;;5455695;26;20295;-77
2024/04/12 12:00:40;;;;;;;10.93;3.40;;;18.90;79.40;;;;;;5455538;26;20334;-76
2024/04/12 12:03:15;;;;;;;9.80;3.60;;;18.90;79.60;;;;;;5449363;26;20749;-76
2024/04/12 12:05:43;;;;;;;11.67;3.60;;;18.90;79.60;;;;;;5448757;26;20283;-77
2024/04/12 12:08:13;;;;;;;10.60;3.67;;;18.90;79.70;;;;;;5449345;26;20247;-76
2024/04/12 12:10:45;;;;;;;10.97;3.93;;;18.80;79.80;;;;;;5446767;26;20629;-77
2024/04/12 12:13:13;;;;;;;6.50;3.57;;;18.80;79.90;;;;;;5452731;26;20228;-76
2024/04/12 12:15:42;;;;;;;7.80;3.47;;;18.80;79.70;;;;;;5445008;26;20684;-76
2024/04/12 12:18:09;;;;;;;9.27;3.37;;;18.80;79.80;;;;;;5449409;26;20274;-77
2024/04/12 12:20:36;;;;;;;13.90;3.93;;;18.70;80.00;;;;;;5452561;26;20228;-76
2024/04/12 12:23:04;;;;;;;7.23;3.50;;;18.70;80.00;;;;;;5451962;26;20282;-77
2024/04/12 12:25:31;;;;;;;11.13;4.13;;;18.60;80.00;;;;;;5447108;26;20225;-77
2024/04/12 12:27:58;;;;;;;8.60;3.80;;;18.60;80.20;;;;;;5450420;26;20275;-75
2024/04/12 12:30:26;;;;;;;7.80;3.67;;;18.50;80.20;;;;;;5452866;26;20232;-77
2024/04/12 12:32:56;;;;;;;7.50;3.90;;;18.50;80.30;;;;;;5446071;26;20225;-75
2024/04/12 12:35:23;;;;;;;11.00;4.00;;;18.40;80.70;;;;;;5452803;26;20224;-78
2024/04/12 12:37:51;;;;;;;11.57;4.43;;;18.40;80.90;;;;;;5450978;26;20275;-75
2024/04/12 12:40:21;;;;;;;8.50;4.97;;;18.40;81.10;;;;;;5450236;26;20757;-76
2024/04/12 12:42:51;;;;;;;6.37;4.53;;;18.40;81.00;;;;;;5449978;26;20344;-76
2024/04/12 12:45:19;;;;;;;7.47;5.43;;;18.30;81.30;;;;;;5451337;26;20225;-77
2024/04/12 12:47:48;;;;;;;9.93;5.50;;;18.30;81.50;;;;;;5455325;26;20244;-77
2024/04/12 12:50:23;;;;;;;8.77;5.90;;;18.30;81.40;;;;;;5453775;26;20240;-77
2024/04/12 12:52:51;;;;;;;9.43;6.50;;;18.20;81.60;;;;;;5448367;26;20232;-76
2024/04/12 12:55:28;;;;;;;10.77;6.40;;;18.20;81.80;;;;;;5455164;26;20240;-78
2024/04/12 12:58:11;;;;;;;8.60;7.13;;;18.20;81.90;;;;;;5454456;26;20271;-77
2024/04/12 13:00:44;;;;;;;9.93;7.67;;;18.10;82.00;;;;;;5453151;26;20228;-77
2024/04/12 13:03:12;;;;;;;10.27;8.90;;;18.00;82.00;;;;;;5453708;26;20271;-78
2024/04/12 13:05:40;;;;;;;17.63;10.80;;;18.00;82.20;;;;;;5454017;26;20278;-77
2024/04/12 13:08:08;;;;;;;15.23;13.77;;;18.10;82.60;;;;;;5455616;26;20719;-77
2024/04/12 13:10:37;;;;;;;17.83;16.23;;;18.10;82.50;;;;;;5456386;26;20741;-76
2024/04/12 13:13:05;;;;;;;23.40;21.50;;;18.10;82.50;;;;;;5450697;26;20337;-76
2024/04/12 13:15:33;;;;;;;25.37;23.57;;;18.10;82.50;;;;;;5458958;26;20760;-76
2024/04/12 13:18:00;;;;;;;28.80;26.37;;;18.00;82.70;;;;;;5452526;26;20225;-76
2024/04/12 13:20:35;;;;;;;33.83;30.60;;;18.00;82.80;;;;;;5455791;26;20239;-76
2024/04/12 13:23:04;;;;;;;44.80;41.80;;;18.00;82.70;;;;;;5446439;26;20224;-76
2024/04/12 13:25:31;;;;;;;47.50;44.10;;;18.00;83.00;;;;;;5447230;26;20271;-76
2024/04/12 13:27:59;;;;;;;50.10;46.63;;;17.90;82.90;;;;;;5443135;26;20248;-75
2024/04/12 13:30:29;;;;;;;51.77;48.23;;;17.90;83.00;;;;;;5445711;26;20290;-76
2024/04/12 13:32:58;;;;;;;59.00;55.17;;;17.80;83.00;;;;;;5444706;26;20244;-77
2024/04/12 13:35:28;;;;;;;69.07;64.90;;;17.80;83.30;;;;;;5459035;26;20283;-75
2024/04/12 13:37:55;;;;;;;66.87;62.77;;;17.80;83.30;;;;;;5461717;26;20224;-78
2024/04/12 13:40:25;;;;;;;84.37;78.90;;;17.80;83.40;;;;;;5451110;26;20275;-77
2024/04/12 13:42:54;;;;;;;78.53;73.77;;;17.80;83.30;;;;;;5413757;26;20748;-77
2024/04/12 13:50:55;;;;;;;104.43;98.60;;;17.80;83.50;;;;;;5453892;26;20610;-75
2024/04/12 13:53:32;;;;;;;100.57;95.07;;;17.80;83.60;;;;;;5450377;26;20244;-78
2024/04/12 13:56:25;;;;;;;106.90;100.50;;;17.80;83.80;;;;;;5453473;26;20605;-77
2024/04/12 13:58:56;;;;;;;112.30;106.20;;;17.80;84.00;;;;;;5446659;26;20239;-77
2024/04/12 14:01:30;;;;;;;118.20;111.90;;;17.80;83.90;;;;;;5449929;26;20394;-77
2024/04/12 14:04:06;;;;;;;116.13;109.87;;;17.80;84.00;;;;;;5441559;26;20235;-77
2024/04/12 14:06:37;;;;;;;120.83;114.20;;;17.80;84.00;;;;;;5451599;26;20240;-77
2024/04/12 14:09:09;;;;;;;128.43;121.17;;;17.80;83.90;;;;;;5454387;26;20328;-76
2024/04/12 14:11:36;;;;;;;130.63;123.63;;;17.70;84.10;;;;;;5454750;26;20278;-77
2024/04/12 14:14:04;;;;;;;132.87;125.50;;;17.70;84.10;;;;;;5451202;26;20269;-76
2024/04/12 14:16:33;;;;;;;133.47;126.17;;;17.60;84.30;;;;;;5503454;26;20270;-74
2024/04/12 14:19:00;;;;;;;142.97;134.70;;;17.60;84.50;;;;;;5455739;26;20288;-76
2024/04/12 14:21:28;;;;;;;152.40;144.43;;;17.60;84.60;;;;;;5454525;26;20301;-76
2024/04/12 14:24:00;;;;;;;146.60;138.63;;;17.50;84.80;;;;;;5454577;26;20352;-75
2024/04/12 14:26:28;;;;;;;141.90;134.40;;;17.50;85.00;;;;;;5455018;26;20236;-78
2024/04/12 14:29:00;;;;;;;140.43;132.90;;;17.50;85.20;;;;;;5452754;26;20710;-76
2024/04/12 14:31:27;;;;;;;147.40;139.30;;;17.50;85.30;;;;;;5454162;26;20334;-76
2024/04/12 14:33:55;;;;;;;141.70;134.20;;;17.50;85.30;;;;;;5453692;26;20232;-76
2024/04/12 14:36:23;;;;;;;136.07;128.40;;;17.50;85.40;;;;;;5453274;26;20232;-76